Time;durP1;ratioP1;P1;durP2;ratioP2;P2;SDS_P1;SDS_P2;PMS_P1;PMS_P2;Temp;Humidity;BMP_temperature;BMP_pressure;BME280_temperature;BME280_humidity;BME280_pressure;Samples;Min_cycle;Max_cycle;Signal;HPM_P1;HPM_P2
2023/06/27 00:00:06;;;;;;;5.15;2.30;;;15.30;99.90;;;;;;5028572;28;20201;-64
2023/06/27 00:02:33;;;;;;;7.95;2.15;;;15.30;99.90;;;;;;5045939;28;20211;-64
2023/06/27 00:05:00;;;;;;;11.05;2.30;;;15.20;99.90;;;;;;5045988;28;20215;-64
2023/06/27 00:07:27;;;;;;;6.55;2.30;;;15.20;99.90;;;;;;5049149;28;20223;-64
2023/06/27 00:09:54;;;;;;;10.00;2.65;;;15.20;99.90;;;;;;5036492;28;20212;-64
2023/06/27 00:12:21;;;;;;;7.38;1.92;;;15.20;99.90;;;;;;5018555;28;20346;-63
2023/06/27 00:14:50;;;;;;;4.85;1.92;;;15.10;99.90;;;;;;5036439;28;21013;-64
2023/06/27 00:17:17;;;;;;;4.97;1.95;;;15.10;99.90;;;;;;5047070;28;20193;-64
2023/06/27 00:22:10;;;;;;;7.65;3.00;;;15.10;99.90;;;;;;5038099;28;22239;-64
2023/06/27 00:24:37;;;;;;;11.48;2.70;;;15.10;99.90;;;;;;5025906;28;20267;-64
2023/06/27 00:27:04;;;;;;;2.85;1.70;;;15.10;99.90;;;;;;5012020;28;20649;-64
2023/06/27 00:29:31;;;;;;;6.47;2.30;;;15.10;99.90;;;;;;5043077;28;20201;-64
2023/06/27 00:31:59;;;;;;;7.90;2.20;;;15.00;99.90;;;;;;5029429;28;20677;-64
2023/06/27 00:34:26;;;;;;;7.18;2.92;;;15.10;99.90;;;;;;5041639;28;20313;-64
2023/06/27 00:36:53;;;;;;;5.38;2.08;;;15.10;99.90;;;;;;5027713;28;20205;-64
2023/06/27 00:39:20;;;;;;;8.32;2.38;;;15.10;99.90;;;;;;5029391;28;20213;-63
2023/06/27 00:41:48;;;;;;;9.38;2.15;;;15.30;99.90;;;;;;5018320;28;20294;-64
2023/06/27 00:44:14;;;;;;;5.97;2.40;;;15.10;99.90;;;;;;5032096;28;20205;-64
2023/06/27 00:46:42;;;;;;;5.03;2.45;;;15.10;99.90;;;;;;5030242;28;20220;-64
2023/06/27 00:49:12;;;;;;;15.45;2.88;;;15.00;99.90;;;;;;5040857;28;20205;-64
2023/06/27 00:51:40;;;;;;;7.85;3.15;;;15.10;99.90;;;;;;5034964;28;20202;-64
2023/06/27 00:54:07;;;;;;;5.60;2.45;;;15.00;99.90;;;;;;5033291;28;20200;-64
2023/06/27 00:56:35;;;;;;;8.00;2.63;;;15.10;99.90;;;;;;5026410;28;20688;-64
2023/06/27 00:59:03;;;;;;;9.55;2.58;;;15.10;99.90;;;;;;5007090;28;20209;-64
2023/06/27 01:01:30;;;;;;;12.68;2.83;;;15.00;99.90;;;;;;5028367;28;20248;-64
2023/06/27 01:03:57;;;;;;;6.43;2.95;;;15.30;99.90;;;;;;5035370;28;20203;-64
2023/06/27 01:06:33;;;;;;;7.78;2.75;;;15.00;99.90;;;;;;5034151;28;20212;-64
2023/06/27 01:09:03;;;;;;;7.15;2.33;;;15.00;99.90;;;;;;5036660;28;20201;-63
2023/06/27 01:11:35;;;;;;;9.85;2.65;;;15.00;99.90;;;;;;5030627;28;20895;-64
2023/06/27 01:14:04;;;;;;;4.45;2.33;;;15.00;99.90;;;;;;5007072;28;20251;-64
2023/06/27 01:16:34;;;;;;;8.25;2.10;;;15.00;99.90;;;;;;5031726;28;20217;-64
2023/06/27 01:19:02;;;;;;;10.00;2.60;;;15.00;99.90;;;;;;5037187;28;20193;-64
2023/06/27 01:21:33;;;;;;;2.92;2.00;;;15.00;99.90;;;;;;5037768;28;20678;-65
2023/06/27 01:24:03;;;;;;;6.32;2.15;;;15.00;99.90;;;;;;5030189;28;20204;-64
2023/06/27 01:26:30;;;;;;;7.20;2.10;;;15.00;99.90;;;;;;5029357;28;20624;-64
2023/06/27 01:28:57;;;;;;;6.97;2.22;;;14.90;99.90;;;;;;5009077;28;22406;-64
2023/06/27 01:31:30;;;;;;;7.10;2.30;;;14.90;99.90;;;;;;5038654;28;20201;-64
2023/06/27 01:34:03;;;;;;;6.43;2.47;;;14.90;99.90;;;;;;5029333;28;20225;-65
2023/06/27 01:36:36;;;;;;;4.85;2.00;;;14.90;99.90;;;;;;5037401;28;20232;-64
2023/06/27 01:39:09;;;;;;;4.60;1.98;;;14.90;99.90;;;;;;5032856;28;20192;-64
2023/06/27 01:41:39;;;;;;;8.25;1.98;;;14.90;99.90;;;;;;5039485;28;20293;-64
2023/06/27 01:44:07;;;;;;;5.72;2.05;;;14.90;99.90;;;;;;5002900;28;20924;-64
2023/06/27 01:46:35;;;;;;;9.15;2.22;;;14.90;99.90;;;;;;5038854;28;20208;-64
2023/06/27 01:49:04;;;;;;;3.25;1.80;;;14.90;99.90;;;;;;5029209;28;20706;-64
2023/06/27 01:51:32;;;;;;;5.35;1.77;;;14.80;99.90;;;;;;5033902;28;20205;-63
2023/06/27 01:53:59;;;;;;;5.90;2.15;;;15.10;99.90;;;;;;5041770;28;20211;-64
2023/06/27 01:56:28;;;;;;;3.67;1.90;;;14.80;99.90;;;;;;5036319;28;20228;-64
2023/06/27 01:58:54;;;;;;;5.57;2.42;;;14.80;99.90;;;;;;5042153;28;20211;-64
2023/06/27 02:01:21;;;;;;;3.35;1.58;;;14.80;99.90;;;;;;5016606;28;20223;-64
2023/06/27 02:03:48;;;;;;;5.75;1.88;;;14.80;99.90;;;;;;5025180;28;20676;-64
2023/06/27 02:06:15;;;;;;;6.13;2.05;;;14.80;99.90;;;;;;5038727;28;20208;-64
2023/06/27 02:08:42;;;;;;;3.67;2.05;;;14.70;99.90;;;;;;5045475;28;20201;-64
2023/06/27 02:11:09;;;;;;;4.90;2.20;;;14.70;99.90;;;;;;5043280;28;20201;-64
2023/06/27 02:13:38;;;;;;;4.40;1.95;;;14.70;99.90;;;;;;5033756;28;20200;-64
2023/06/27 02:16:05;;;;;;;4.72;1.90;;;14.70;99.90;;;;;;5015266;28;20221;-64
2023/06/27 02:18:32;;;;;;;3.80;2.03;;;14.70;99.90;;;;;;5043753;28;20207;-65
2023/06/27 02:20:59;;;;;;;4.10;1.90;;;14.70;99.90;;;;;;5034240;28;20208;-64
2023/06/27 02:23:26;;;;;;;6.97;2.50;;;14.70;99.90;;;;;;5034418;28;20193;-64
2023/06/27 02:25:53;;;;;;;7.72;2.38;;;14.70;99.90;;;;;;5033561;28;20311;-64
2023/06/27 02:28:19;;;;;;;4.30;1.95;;;14.70;99.90;;;;;;5029718;28;20217;-64
2023/06/27 02:30:48;;;;;;;5.68;2.38;;;14.70;99.90;;;;;;5025443;28;20207;-64
2023/06/27 02:33:15;;;;;;;7.40;2.15;;;14.70;99.90;;;;;;5037671;28;20193;-64
2023/06/27 02:35:41;;;;;;;6.25;2.20;;;14.60;99.90;;;;;;5033061;28;20243;-64
2023/06/27 02:38:08;;;;;;;3.10;2.25;;;14.60;99.90;;;;;;5030708;28;20198;-64
2023/06/27 02:40:35;;;;;;;5.93;2.35;;;14.60;99.90;;;;;;5044128;28;20197;-64
2023/06/27 02:43:02;;;;;;;8.82;2.40;;;14.70;99.90;;;;;;5041558;28;20201;-64
2023/06/27 02:45:28;;;;;;;3.85;2.70;;;14.70;99.90;;;;;;5032062;28;20204;-65
2023/06/27 02:47:56;;;;;;;7.80;2.30;;;14.60;99.90;;;;;;5013911;28;20213;-64
2023/06/27 02:50:23;;;;;;;2.50;2.30;;;14.60;99.90;;;;;;5033258;28;20215;-64
2023/06/27 02:52:50;;;;;;;6.25;1.90;;;14.60;99.90;;;;;;5031242;28;20220;-64
2023/06/27 02:55:17;;;;;;;3.88;2.53;;;14.60;99.90;;;;;;5043067;28;20225;-64
2023/06/27 02:57:43;;;;;;;6.35;2.65;;;14.60;99.90;;;;;;5041533;28;20197;-64
2023/06/27 03:00:11;;;;;;;8.50;2.58;;;14.60;99.90;;;;;;5035718;28;20424;-64
2023/06/27 03:02:38;;;;;;;3.92;2.03;;;14.60;99.90;;;;;;5039175;28;20188;-64
2023/06/27 03:05:07;;;;;;;7.50;2.70;;;14.60;99.90;;;;;;5017384;28;20397;-64
2023/06/27 03:07:33;;;;;;;4.20;2.13;;;14.50;99.90;;;;;;5031678;28;20323;-64
2023/06/27 03:10:00;;;;;;;3.20;2.10;;;14.60;99.90;;;;;;5035796;28;20885;-65
2023/06/27 03:12:27;;;;;;;5.18;2.40;;;14.50;99.90;;;;;;5048592;28;20254;-64
2023/06/27 03:14:54;;;;;;;6.43;2.47;;;14.50;99.90;;;;;;5042941;28;20204;-64
2023/06/27 03:17:20;;;;;;;7.80;3.05;;;14.50;99.90;;;;;;5039287;28;20201;-64
2023/06/27 03:19:47;;;;;;;6.55;2.60;;;14.50;99.90;;;;;;5013101;28;20200;-64
2023/06/27 03:22:15;;;;;;;4.65;2.47;;;14.50;99.90;;;;;;5030747;28;20212;-64
2023/06/27 03:24:42;;;;;;;6.35;2.45;;;14.50;99.90;;;;;;5036675;28;21302;-64
2023/06/27 03:27:09;;;;;;;5.60;2.20;;;14.40;99.90;;;;;;5034585;28;20662;-64
2023/06/27 03:29:36;;;;;;;7.50;2.30;;;14.40;99.90;;;;;;5042358;28;20193;-64
2023/06/27 03:32:03;;;;;;;10.82;2.78;;;14.40;99.90;;;;;;5023138;28;20201;-64
2023/06/27 03:34:29;;;;;;;5.43;2.53;;;14.40;99.90;;;;;;5016070;28;20248;-64
2023/06/27 03:36:56;;;;;;;8.20;2.90;;;14.40;99.90;;;;;;5026421;28;20740;-64
2023/06/27 03:39:24;;;;;;;7.50;2.63;;;14.40;99.90;;;;;;5036255;28;20920;-64
2023/06/27 03:41:51;;;;;;;3.22;2.40;;;14.40;99.90;;;;;;5037662;28;20235;-64
2023/06/27 03:44:18;;;;;;;8.13;2.35;;;14.10;99.90;;;;;;5039560;28;20197;-64
2023/06/27 03:46:45;;;;;;;8.55;3.17;;;14.40;99.90;;;;;;5041490;28;20204;-64
2023/06/27 03:49:11;;;;;;;11.10;2.55;;;14.50;99.90;;;;;;5008509;28;20201;-64
2023/06/27 03:51:41;;;;;;;6.20;2.60;;;14.40;99.90;;;;;;5036037;28;20293;-64
2023/06/27 03:54:09;;;;;;;4.78;2.53;;;14.40;99.90;;;;;;5030978;28;20230;-64
2023/06/27 03:56:37;;;;;;;8.15;2.95;;;14.40;99.90;;;;;;5030046;28;20890;-64
2023/06/27 03:59:04;;;;;;;11.40;3.10;;;;;;;;;;5040223;28;20679;-64
2023/06/27 04:01:31;;;;;;;4.40;2.42;;;14.30;99.90;;;;;;5040570;28;20216;-63
2023/06/27 04:03:57;;;;;;;4.80;2.28;;;14.50;99.90;;;;;;5027780;28;20216;-64
2023/06/27 04:06:24;;;;;;;5.63;2.80;;;14.30;99.90;;;;;;5013931;28;20209;-64
2023/06/27 04:08:51;;;;;;;4.50;2.45;;;14.40;99.90;;;;;;5035517;28;20209;-64
2023/06/27 04:11:18;;;;;;;5.25;2.45;;;14.40;99.90;;;;;;5032237;28;20228;-64
2023/06/27 04:13:46;;;;;;;4.32;2.50;;;14.40;99.90;;;;;;5048192;28;20208;-63
2023/06/27 04:16:13;;;;;;;6.82;2.47;;;14.40;99.90;;;;;;5040076;28;20257;-64
2023/06/27 04:18:39;;;;;;;4.65;2.53;;;14.40;99.90;;;;;;5034996;28;20209;-64
2023/06/27 04:21:06;;;;;;;7.45;2.70;;;;;;;;;;5015970;28;20223;-63
2023/06/27 04:23:33;;;;;;;4.43;2.33;;;14.20;99.90;;;;;;5047187;28;21932;-64
2023/06/27 04:26:03;;;;;;;9.80;3.00;;;14.20;99.90;;;;;;5029818;28;20375;-64
2023/06/27 04:28:31;;;;;;;4.45;2.30;;;14.30;99.90;;;;;;5040973;28;20193;-64
2023/06/27 04:31:00;;;;;;;6.18;2.63;;;14.30;99.90;;;;;;5041314;28;20222;-64
2023/06/27 04:33:27;;;;;;;11.02;3.00;;;14.20;99.90;;;;;;5030592;28;20212;-65
2023/06/27 04:35:54;;;;;;;7.55;2.45;;;14.20;99.90;;;;;;5028654;28;20783;-64
2023/06/27 04:38:21;;;;;;;5.68;2.95;;;14.20;99.90;;;;;;4999723;28;20292;-64
2023/06/27 04:40:48;;;;;;;5.28;2.63;;;14.20;99.90;;;;;;5027128;28;20240;-64
2023/06/27 04:43:15;;;;;;;5.30;2.85;;;14.20;99.90;;;;;;5030637;28;20237;-63
2023/06/27 04:45:42;;;;;;;4.28;2.67;;;14.20;99.90;;;;;;5042640;28;20205;-63
2023/06/27 04:48:10;;;;;;;5.13;2.30;;;14.40;99.90;;;;;;5034470;28;20210;-64
2023/06/27 04:50:37;;;;;;;4.20;2.55;;;14.30;99.90;;;;;;5032811;28;20200;-64
2023/06/27 04:53:04;;;;;;;6.95;2.80;;;14.40;99.90;;;;;;5001377;28;20224;-64
2023/06/27 04:55:32;;;;;;;6.32;2.35;;;14.30;99.90;;;;;;5021040;28;20697;-64
2023/06/27 04:57:58;;;;;;;4.65;2.50;;;14.40;99.90;;;;;;5030026;28;20228;-64
2023/06/27 05:00:25;;;;;;;6.00;2.70;;;14.40;99.90;;;;;;5032199;28;20193;-64
2023/06/27 05:02:52;;;;;;;8.60;2.80;;;14.50;99.90;;;;;;5031153;28;20208;-64
2023/06/27 05:05:20;;;;;;;5.35;2.65;;;14.60;99.90;;;;;;5039012;28;20217;-64
2023/06/27 05:07:47;;;;;;;4.22;2.65;;;14.60;99.90;;;;;;4991608;28;20215;-63
2023/06/27 05:10:14;;;;;;;9.80;2.50;;;14.70;99.90;;;;;;5029796;28;20200;-63
2023/06/27 05:12:41;;;;;;;5.45;2.25;;;15.00;99.90;;;;;;5019046;28;20212;-63
2023/06/27 05:15:08;;;;;;;6.82;2.80;;;14.90;99.90;;;;;;5016531;28;20198;-64
2023/06/27 05:17:35;;;;;;;7.43;2.90;;;14.90;99.90;;;;;;5032469;28;20228;-63
2023/06/27 05:20:03;;;;;;;5.18;2.20;;;15.00;99.90;;;;;;5030942;28;20220;-64
2023/06/27 05:22:32;;;;;;;7.90;2.90;;;14.90;99.90;;;;;;5002731;28;20201;-64
2023/06/27 05:24:58;;;;;;;5.82;2.55;;;15.00;99.90;;;;;;5038663;28;20233;-63
2023/06/27 05:27:25;;;;;;;5.05;2.78;;;15.00;99.90;;;;;;5023523;28;20258;-63
2023/06/27 05:29:52;;;;;;;3.85;2.60;;;14.90;99.90;;;;;;5019446;28;22139;-64
2023/06/27 05:32:19;;;;;;;4.85;2.70;;;14.90;99.90;;;;;;5037457;28;20691;-64
2023/06/27 05:34:45;;;;;;;7.78;2.80;;;14.90;99.90;;;;;;5030495;28;20200;-64
2023/06/27 05:37:12;;;;;;;4.65;2.75;;;14.80;99.90;;;;;;5033353;28;20229;-63
2023/06/27 05:39:40;;;;;;;7.15;2.88;;;15.00;99.90;;;;;;5002052;28;20225;-64
2023/06/27 05:42:08;;;;;;;4.70;2.67;;;15.00;99.90;;;;;;5029283;28;20206;-64
2023/06/27 05:44:35;;;;;;;7.72;3.00;;;15.20;99.90;;;;;;5028456;28;20197;-64
2023/06/27 05:47:02;;;;;;;9.63;2.70;;;15.10;99.90;;;;;;5037752;28;20212;-64
2023/06/27 05:49:28;;;;;;;4.97;2.63;;;15.30;99.90;;;;;;5045039;28;20221;-64
2023/06/27 05:51:55;;;;;;;4.40;2.58;;;15.30;99.90;;;;;;5044569;28;20215;-64
2023/06/27 05:54:22;;;;;;;5.18;2.38;;;15.50;99.90;;;;;;5012924;28;20215;-64
2023/06/27 05:56:50;;;;;;;7.97;2.92;;;15.60;99.90;;;;;;5040053;28;20271;-64
2023/06/27 05:59:17;;;;;;;5.68;2.53;;;15.70;99.90;;;;;;5026758;28;20196;-64
2023/06/27 06:01:43;;;;;;;12.48;2.45;;;15.80;99.90;;;;;;5022172;28;21048;-64
2023/06/27 06:04:10;;;;;;;5.40;2.47;;;15.90;99.90;;;;;;5033917;28;20198;-64
2023/06/27 06:06:38;;;;;;;6.40;2.78;;;16.00;99.90;;;;;;5043487;28;20221;-64
2023/06/27 06:09:04;;;;;;;6.78;3.00;;;16.10;99.90;;;;;;5026003;28;20210;-64
2023/06/27 06:11:34;;;;;;;4.55;2.47;;;16.10;99.90;;;;;;5044905;28;20196;-64
2023/06/27 06:14:02;;;;;;;7.78;2.28;;;16.10;99.90;;;;;;5035283;28;20300;-64
2023/06/27 06:16:30;;;;;;;4.90;2.17;;;16.20;99.90;;;;;;5038631;28;20231;-66
2023/06/27 06:18:57;;;;;;;7.70;2.50;;;16.30;99.90;;;;;;5033827;28;20220;-64
2023/06/27 06:21:23;;;;;;;9.65;2.95;;;16.40;99.90;;;;;;5036405;28;20339;-65
2023/06/27 06:23:50;;;;;;;4.60;2.30;;;16.40;99.90;;;;;;5013228;28;20224;-64
2023/06/27 06:26:17;;;;;;;3.42;2.20;;;16.50;99.90;;;;;;5041481;28;20224;-64
2023/06/27 06:28:44;;;;;;;8.85;2.30;;;16.50;99.90;;;;;;5030729;28;20209;-64
2023/06/27 06:31:14;;;;;;;4.18;2.40;;;16.60;99.90;;;;;;5043766;28;20207;-64
2023/06/27 06:33:41;;;;;;;3.75;2.20;;;16.70;99.90;;;;;;5015087;28;20204;-64
2023/06/27 06:36:08;;;;;;;7.18;2.40;;;16.90;99.90;;;;;;5038662;28;20212;-64
2023/06/27 06:38:35;;;;;;;8.63;2.22;;;16.90;99.90;;;;;;5036478;28;20231;-64
2023/06/27 06:41:03;;;;;;;5.28;2.20;;;16.90;99.90;;;;;;5017499;28;20206;-64
2023/06/27 06:43:29;;;;;;;8.35;2.30;;;17.10;99.90;;;;;;5040194;28;20245;-64
2023/06/27 06:45:57;;;;;;;3.92;1.83;;;17.10;99.90;;;;;;5033301;28;20248;-64
2023/06/27 06:48:26;;;;;;;3.78;1.90;;;17.30;99.90;;;;;;5034061;28;20208;-64
2023/06/27 06:50:53;;;;;;;10.38;2.17;;;17.30;99.90;;;;;;5046987;28;20216;-64
2023/06/27 06:53:20;;;;;;;2.83;1.77;;;17.30;99.90;;;;;;5040019;28;20224;-64
2023/06/27 06:55:47;;;;;;;8.82;2.03;;;17.30;99.90;;;;;;5020402;28;20205;-64
2023/06/27 06:58:14;;;;;;;4.35;1.80;;;17.50;99.90;;;;;;5044578;28;20228;-64
2023/06/27 07:00:41;;;;;;;6.13;2.15;;;17.40;99.90;;;;;;5033115;28;20197;-64
2023/06/27 07:03:08;;;;;;;4.68;1.65;;;;;;;;;;5042754;28;20196;-65
2023/06/27 07:05:37;;;;;;;4.45;1.90;;;17.60;99.90;;;;;;5028686;28;20197;-65
2023/06/27 07:08:04;;;;;;;2.47;1.63;;;17.60;99.90;;;;;;5035155;28;20220;-64
2023/06/27 07:10:31;;;;;;;9.02;2.03;;;17.70;99.90;;;;;;5015488;28;21213;-64
2023/06/27 07:12:59;;;;;;;12.50;1.88;;;17.70;99.90;;;;;;5042294;28;20217;-64
2023/06/27 07:15:26;;;;;;;5.85;1.90;;;17.80;99.90;;;;;;5041447;28;20284;-64
2023/06/27 07:17:54;;;;;;;6.95;1.77;;;17.90;99.90;;;;;;5034730;28;20323;-64
2023/06/27 07:20:22;;;;;;;9.88;2.28;;;17.80;99.90;;;;;;5030152;28;20489;-64
2023/06/27 07:22:50;;;;;;;6.72;2.13;;;17.80;99.90;;;;;;5035646;28;20206;-64
2023/06/27 07:25:17;;;;;;;4.07;1.90;;;17.90;99.90;;;;;;5046571;28;20249;-64
2023/06/27 07:27:44;;;;;;;3.85;1.60;;;17.90;99.90;;;;;;5023228;28;20250;-64
2023/06/27 07:30:11;;;;;;;6.18;2.20;;;17.90;99.90;;;;;;5050733;28;20197;-65
2023/06/27 07:32:39;;;;;;;3.70;1.80;;;18.10;99.90;;;;;;5033112;28;20259;-64
2023/06/27 07:35:06;;;;;;;4.78;2.08;;;18.10;99.90;;;;;;5038958;28;20200;-64
2023/06/27 07:37:33;;;;;;;9.57;1.83;;;18.20;99.90;;;;;;5046785;28;20228;-64
2023/06/27 07:40:03;;;;;;;4.35;1.73;;;18.20;99.90;;;;;;5044749;28;20197;-64
2023/06/27 07:42:30;;;;;;;5.43;1.50;;;18.20;99.90;;;;;;5019599;28;20216;-64
2023/06/27 07:44:56;;;;;;;4.93;1.63;;;18.30;99.90;;;;;;5042720;28;20205;-64
2023/06/27 07:47:23;;;;;;;5.32;1.50;;;18.40;99.90;;;;;;5037755;28;20232;-64
2023/06/27 07:49:50;;;;;;;2.63;1.88;;;18.40;99.90;;;;;;5037254;28;20203;-64
2023/06/27 07:52:17;;;;;;;1.98;1.40;;;18.30;99.90;;;;;;5042858;28;20203;-64
2023/06/27 07:54:44;;;;;;;6.30;1.98;;;18.40;99.90;;;;;;5045274;28;20209;-64
2023/06/27 07:57:12;;;;;;;5.43;1.83;;;18.50;99.90;;;;;;5022082;28;21400;-65
2023/06/27 07:59:38;;;;;;;1.85;1.33;;;18.50;99.90;;;;;;5046212;28;20209;-64
2023/06/27 08:02:06;;;;;;;1.63;1.40;;;18.70;99.90;;;;;;5046594;28;20224;-64
2023/06/27 08:04:33;;;;;;;3.92;1.52;;;18.70;99.90;;;;;;5021646;28;20205;-64
2023/06/27 08:07:00;;;;;;;13.52;1.75;;;18.80;99.90;;;;;;5041358;28;20767;-65
2023/06/27 08:09:26;;;;;;;6.35;1.50;;;18.90;99.90;;;;;;5043764;28;22122;-64
2023/06/27 08:11:54;;;;;;;3.78;1.85;;;18.80;99.90;;;;;;5046200;28;20586;-64
2023/06/27 08:14:22;;;;;;;5.38;1.45;;;18.80;99.90;;;;;;5015768;28;20359;-64
2023/06/27 08:16:49;;;;;;;3.95;1.50;;;18.60;99.90;;;;;;5047449;28;20803;-64
2023/06/27 08:19:15;;;;;;;2.25;1.10;;;18.60;99.90;;;;;;5032313;28;20459;-64
2023/06/27 08:21:42;;;;;;;5.63;1.65;;;18.60;99.90;;;;;;5040150;28;20205;-63
2023/06/27 08:24:09;;;;;;;3.83;1.30;;;18.80;99.90;;;;;;5045825;28;20255;-64
2023/06/27 08:26:36;;;;;;;5.57;1.85;;;18.90;99.90;;;;;;5047303;28;20744;-64
2023/06/27 08:29:03;;;;;;;6.57;1.70;;;19.00;99.90;;;;;;5022114;28;20236;-64
2023/06/27 08:31:31;;;;;;;1.67;1.10;;;19.00;99.90;;;;;;5043861;28;20292;-64
2023/06/27 08:33:58;;;;;;;4.18;1.38;;;18.90;99.90;;;;;;5040159;28;20197;-64
2023/06/27 08:36:24;;;;;;;3.55;1.10;;;18.90;99.90;;;;;;5035105;28;20583;-64
2023/06/27 08:38:51;;;;;;;3.05;0.93;;;18.90;99.90;;;;;;5043201;28;20315;-64
2023/06/27 08:41:18;;;;;;;4.35;1.50;;;19.20;99.90;;;;;;5045619;28;20689;-64
2023/06/27 08:43:45;;;;;;;1.83;1.23;;;19.00;99.90;;;;;;5041689;28;20304;-64
2023/06/27 08:46:12;;;;;;;3.25;1.10;;;18.70;99.90;;;;;;5017281;28;20196;-63
2023/06/27 08:48:42;;;;;;;2.25;0.90;;;18.70;99.90;;;;;;5045897;28;20197;-64
2023/06/27 08:51:12;;;;;;;4.25;1.30;;;18.70;99.90;;;;;;5021912;28;20276;-64
2023/06/27 08:53:43;;;;;;;2.97;1.10;;;18.70;99.90;;;;;;5038860;28;20919;-64
2023/06/27 08:56:13;;;;;;;3.13;0.95;;;18.30;99.90;;;;;;5041964;28;20201;-64
2023/06/27 08:58:45;;;;;;;6.35;1.63;;;18.80;99.90;;;;;;5043215;28;20225;-64
2023/06/27 09:01:13;;;;;;;4.03;1.27;;;18.80;99.90;;;;;;5004861;28;20216;-64
2023/06/27 09:03:41;;;;;;;6.07;1.10;;;18.90;99.90;;;;;;5040979;28;20202;-64
2023/06/27 09:06:08;;;;;;;2.95;1.27;;;18.90;99.90;;;;;;5031582;28;20204;-64
2023/06/27 09:08:37;;;;;;;3.25;1.17;;;18.90;99.90;;;;;;5034720;28;20658;-64
2023/06/27 09:11:08;;;;;;;1.88;0.90;;;19.00;99.90;;;;;;5042891;28;20227;-64
2023/06/27 09:13:36;;;;;;;1.38;1.27;;;19.00;99.90;;;;;;5047327;28;20216;-64
2023/06/27 09:16:04;;;;;;;1.15;0.98;;;19.30;99.90;;;;;;5016554;28;20196;-65
2023/06/27 09:18:31;;;;;;;3.88;1.33;;;19.20;99.90;;;;;;5037372;28;20225;-64
2023/06/27 09:20:59;;;;;;;5.57;1.60;;;19.00;99.90;;;;;;5030309;28;20221;-64
2023/06/27 09:23:28;;;;;;;4.82;1.20;;;19.00;99.90;;;;;;5028871;28;20881;-64
2023/06/27 09:26:06;;;;;;;3.78;1.48;;;19.60;99.90;;;;;;5032687;28;20358;-64
2023/06/27 09:28:43;;;;;;;3.20;1.10;;;19.50;99.90;;;;;;5044450;28;20205;-64
2023/06/27 09:31:12;;;;;;;5.32;1.00;;;20.20;99.90;;;;;;5008748;28;23861;-64
2023/06/27 09:33:39;;;;;;;1.77;1.17;;;20.20;99.90;;;;;;5042885;28;20201;-64
2023/06/27 09:36:08;;;;;;;5.30;1.15;;;20.10;99.90;;;;;;5033386;28;20216;-64
2023/06/27 09:38:34;;;;;;;3.45;0.70;;;19.70;99.90;;;;;;5028818;28;20229;-65
2023/06/27 09:41:05;;;;;;;1.33;1.00;;;19.70;99.90;;;;;;5044256;28;20213;-64
2023/06/27 09:43:33;;;;;;;3.22;1.02;;;19.90;99.90;;;;;;5038089;28;20220;-64
2023/06/27 09:46:00;;;;;;;3.17;0.80;;;19.90;99.90;;;;;;5031147;28;20668;-64
2023/06/27 09:48:29;;;;;;;1.05;0.95;;;20.10;99.90;;;;;;5016687;28;20228;-65
2023/06/27 09:50:59;;;;;;;2.45;1.00;;;20.20;99.90;;;;;;5038846;28;26439;-64
2023/06/27 09:53:30;;;;;;;4.18;0.93;;;19.90;99.90;;;;;;5028225;28;20202;-64
2023/06/27 09:55:58;;;;;;;2.63;0.88;;;19.90;99.90;;;;;;5045159;28;20444;-64
2023/06/27 09:58:28;;;;;;;2.28;1.20;;;19.40;99.90;;;;;;5041903;28;20232;-64
2023/06/27 10:00:56;;;;;;;2.17;1.17;;;18.60;99.90;;;;;;5024195;28;20209;-65
2023/06/27 10:03:24;;;;;;;2.88;1.30;;;18.60;99.90;;;;;;5016647;28;20233;-64
2023/06/27 10:05:50;;;;;;;3.92;1.38;;;18.20;99.90;;;;;;5040741;28;20308;-64
2023/06/27 10:08:17;;;;;;;3.97;1.08;;;18.20;99.90;;;;;;5032225;28;20201;-64
2023/06/27 10:10:45;;;;;;;2.95;1.20;;;18.40;99.90;;;;;;5028230;28;20201;-64
2023/06/27 10:13:13;;;;;;;5.78;1.13;;;19.10;99.90;;;;;;5041865;28;20185;-64
2023/06/27 10:15:40;;;;;;;6.88;1.13;;;19.10;99.90;;;;;;5041557;28;20201;-64
2023/06/27 10:18:07;;;;;;;1.85;1.08;;;19.30;99.90;;;;;;5006555;28;20232;-64
2023/06/27 10:20:35;;;;;;;3.17;1.25;;;19.40;99.90;;;;;;5020811;28;20227;-64
2023/06/27 10:23:03;;;;;;;1.33;0.90;;;19.40;99.90;;;;;;5026501;28;20224;-64
2023/06/27 10:25:30;;;;;;;2.67;0.93;;;19.40;99.90;;;;;;5026803;28;20972;-64
2023/06/27 10:28:06;;;;;;;1.95;0.82;;;19.50;99.90;;;;;;5038840;28;20225;-64
2023/06/27 10:30:35;;;;;;;0.93;0.85;;;19.70;99.90;;;;;;5043786;28;20193;-64
2023/06/27 10:33:09;;;;;;;4.57;1.10;;;20.30;99.90;;;;;;4994501;28;20221;-65
2023/06/27 10:35:39;;;;;;;1.70;0.90;;;20.30;99.90;;;;;;5041391;28;20657;-64
2023/06/27 10:38:08;;;;;;;3.95;1.10;;;20.60;99.90;;;;;;5035370;28;20221;-65
2023/06/27 10:41:15;;;;;;;1.83;0.80;;;20.60;99.90;;;;;;5027178;28;20197;-63
2023/06/27 10:43:53;;;;;;;8.20;1.20;;;20.40;99.90;;;;;;5019430;28;20196;-63
2023/06/27 10:46:20;;;;;;;3.60;0.93;;;20.80;99.90;;;;;;5036851;28;20193;-63
2023/06/27 10:48:49;;;;;;;3.75;0.98;;;20.80;99.90;;;;;;5006318;28;20213;-63
2023/06/27 10:51:17;;;;;;;5.88;0.90;;;21.10;99.90;;;;;;5039676;28;20193;-63
2023/06/27 10:53:46;;;;;;;1.88;0.82;;;20.80;99.90;;;;;;5019229;28;20220;-64
2023/06/27 10:56:17;;;;;;;1.08;0.80;;;20.80;99.90;;;;;;5036338;28;20201;-64
2023/06/27 10:58:45;;;;;;;5.25;1.17;;;20.90;99.90;;;;;;5047993;28;20601;-64
2023/06/27 11:01:13;;;;;;;4.13;1.25;;;21.20;99.90;;;;;;5032580;28;20235;-64
2023/06/27 11:03:42;;;;;;;2.75;0.73;;;21.60;99.90;;;;;;4986590;28;20316;-65
2023/06/27 11:06:09;;;;;;;3.63;1.30;;;21.10;99.90;;;;;;5035305;28;20225;-64
2023/06/27 11:08:36;;;;;;;1.58;0.88;;;21.50;99.90;;;;;;5026045;28;20220;-64
2023/06/27 11:11:06;;;;;;;1.52;0.90;;;20.60;99.90;;;;;;5023809;28;20221;-64
2023/06/27 11:13:36;;;;;;;3.47;1.00;;;20.80;99.90;;;;;;5038092;28;20730;-64
2023/06/27 11:16:05;;;;;;;1.30;0.80;;;20.90;99.90;;;;;;5030013;28;20698;-64
2023/06/27 11:18:34;;;;;;;1.58;0.60;;;21.00;99.90;;;;;;5013313;28;20235;-64
2023/06/27 11:21:02;;;;;;;4.20;0.85;;;21.20;99.90;;;;;;5033378;28;20200;-64
2023/06/27 11:23:30;;;;;;;2.90;1.33;;;21.20;99.90;;;;;;5028472;28;20245;-64
2023/06/27 11:25:57;;;;;;;3.30;0.90;;;20.90;99.90;;;;;;5004987;28;20229;-64
2023/06/27 11:28:25;;;;;;;3.33;0.80;;;20.60;99.90;;;;;;5042216;28;20209;-64
2023/06/27 11:31:00;;;;;;;2.83;1.30;;;20.70;99.90;;;;;;5034543;28;20196;-64
2023/06/27 11:33:28;;;;;;;3.45;1.00;;;20.90;99.90;;;;;;5013150;28;20277;-63
2023/06/27 11:35:58;;;;;;;3.22;1.35;;;21.00;99.90;;;;;;5032436;28;20212;-64
2023/06/27 11:38:26;;;;;;;4.70;1.13;;;20.70;99.90;;;;;;5015178;28;20600;-64
2023/06/27 11:40:53;;;;;;;1.35;0.90;;;20.70;99.90;;;;;;5018459;28;20209;-64
2023/06/27 11:43:20;;;;;;;6.13;1.08;;;20.90;99.90;;;;;;5034303;28;20207;-64
2023/06/27 11:45:47;;;;;;;3.47;1.00;;;21.10;99.90;;;;;;5048611;28;20220;-64
2023/06/27 11:48:14;;;;;;;2.53;0.73;;;21.30;99.90;;;;;;5029812;28;20197;-65
2023/06/27 11:50:56;;;;;;;1.83;0.90;;;21.40;99.90;;;;;;5027351;28;20290;-64
2023/06/27 11:53:26;;;;;;;1.65;0.70;;;21.30;99.90;;;;;;5030782;28;20310;-64
2023/06/27 11:55:53;;;;;;;1.52;0.98;;;20.40;99.90;;;;;;5020438;28;20711;-64
2023/06/27 11:58:30;;;;;;;3.47;1.35;;;21.00;99.90;;;;;;5010254;28;20891;-64
2023/06/27 12:00:58;;;;;;;2.92;1.20;;;20.80;99.90;;;;;;5034357;28;20282;-63
2023/06/27 12:03:29;;;;;;;6.85;1.10;;;22.30;99.90;;;;;;5005405;28;20197;-64
2023/06/27 12:05:58;;;;;;;2.05;1.05;;;20.70;99.90;;;;;;5022427;28;20224;-64
2023/06/27 12:08:32;;;;;;;1.92;0.73;;;21.30;99.90;;;;;;5023711;28;20197;-64
2023/06/27 12:11:02;;;;;;;3.40;1.13;;;21.30;99.90;;;;;;5023304;28;20957;-64
2023/06/27 12:13:34;;;;;;;4.30;0.90;;;21.10;99.90;;;;;;5016512;28;20193;-63
2023/06/27 12:16:01;;;;;;;1.40;1.00;;;20.90;99.90;;;;;;5026348;28;20213;-63
2023/06/27 12:18:28;;;;;;;2.63;0.98;;;20.50;99.90;;;;;;5016804;28;20233;-64
2023/06/27 12:20:57;;;;;;;2.45;0.80;;;20.60;99.90;;;;;;4995382;28;20736;-63
2023/06/27 12:23:28;;;;;;;2.47;0.88;;;21.20;99.90;;;;;;5000221;28;20226;-63
2023/06/27 12:25:54;;;;;;;2.53;1.00;;;21.10;99.90;;;;;;5023760;28;20233;-64
2023/06/27 12:28:23;;;;;;;3.85;1.00;;;21.10;99.90;;;;;;5001878;28;20678;-63
2023/06/27 12:30:50;;;;;;;2.17;1.00;;;21.30;99.90;;;;;;5029216;28;20227;-63
2023/06/27 12:33:16;;;;;;;1.10;0.93;;;21.30;99.90;;;;;;5036008;28;20213;-63
2023/06/27 12:35:43;;;;;;;5.47;1.42;;;21.10;99.90;;;;;;5011809;28;20216;-64
2023/06/27 12:38:11;;;;;;;2.53;1.15;;;21.10;99.90;;;;;;5037431;28;20204;-63
2023/06/27 12:40:38;;;;;;;3.42;1.50;;;21.10;99.90;;;;;;5037458;28;20201;-64
2023/06/27 12:43:05;;;;;;;3.67;1.60;;;21.10;99.90;;;;;;5012734;28;20205;-63
2023/06/27 12:45:33;;;;;;;0.63;0.63;;;21.10;99.90;;;;;;5042266;28;20205;-63
2023/06/27 12:48:00;;;;;;;4.50;1.48;;;21.40;99.90;;;;;;5037965;28;20274;-64
2023/06/27 12:50:27;;;;;;;1.55;1.00;;;21.50;99.90;;;;;;5041751;28;20996;-64
2023/06/27 12:52:55;;;;;;;1.77;1.02;;;21.50;99.90;;;;;;5019418;28;20238;-65